createdAt,value
2022-08-12T00:03:53.422Z,0.00
2022-08-12T00:08:53.739Z,0.00
2022-08-12T00:13:51.025Z,0.00
2022-08-12T00:18:52.344Z,0.00
2022-08-12T00:23:51.638Z,0.00
2022-08-12T00:28:48.926Z,0.00
2022-08-12T00:33:52.527Z,0.00
2022-08-12T00:38:47.512Z,0.00
2022-08-12T00:43:47.647Z,0.00
2022-08-12T00:48:46.969Z,0.00
2022-08-12T00:53:46.305Z,0.00
2022-08-12T00:58:44.464Z,0.00
2022-08-12T01:03:43.634Z,0.00
2022-08-12T01:08:42.758Z,0.00
2022-08-12T01:13:42.860Z,0.00
2022-08-12T01:18:40.163Z,0.00
2022-08-12T01:23:42.500Z,0.00
2022-08-12T01:28:39.790Z,0.00
2022-08-12T01:33:40.095Z,0.00
2022-08-12T01:38:40.421Z,0.00
2022-08-12T01:43:38.741Z,0.00
2022-08-12T01:48:37.036Z,0.00
2022-08-12T01:53:50.331Z,0.00
2022-08-12T01:58:37.565Z,0.00
2022-08-12T02:03:34.860Z,0.00
2022-08-12T02:08:36.175Z,0.00
2022-08-12T02:13:48.425Z,0.00
2022-08-12T02:18:31.648Z,0.00
2022-08-12T02:23:31.808Z,0.00
2022-08-12T02:28:32.044Z,0.00
2022-08-12T02:33:31.215Z,0.00
2022-08-12T02:38:29.338Z,0.00
2022-08-12T02:43:29.495Z,0.00
2022-08-12T02:48:29.657Z,0.00
2022-08-12T02:53:28.778Z,0.00
2022-08-12T02:58:32.871Z,0.00
2022-08-12T03:03:26.083Z,0.00
2022-08-12T03:08:32.044Z,0.00
2022-08-12T03:13:24.529Z,0.00
2022-08-12T03:18:27.484Z,0.00
2022-08-12T03:23:28.967Z,0.00
2022-08-12T03:28:24.011Z,0.00
2022-08-12T03:33:22.442Z,0.00
2022-08-12T03:38:20.786Z,0.00
2022-08-12T03:43:20.919Z,0.00
2022-08-12T03:48:18.956Z,0.00
2022-08-12T03:53:17.550Z,0.00
2022-08-12T03:58:18.878Z,0.00
2022-08-12T04:03:17.200Z,0.00
2022-08-12T04:08:15.507Z,4.00
2022-08-12T04:13:14.825Z,0.00
2022-08-12T04:18:15.153Z,8.00
2022-08-12T04:23:16.811Z,8.00
2022-08-12T04:28:14.107Z,8.00
2022-08-12T04:33:11.859Z,12.00
2022-08-12T04:38:12.178Z,12.00
2022-08-12T04:43:59.989Z,12.00
2022-08-12T04:48:11.626Z,20.00
2022-08-12T04:53:08.422Z,20.00
2022-08-12T04:58:09.125Z,20.00
2022-08-12T05:03:08.414Z,28.00
2022-08-12T05:08:08.749Z,28.00
2022-08-12T05:13:07.166Z,32.00
2022-08-12T05:18:20.515Z,32.00
2022-08-12T05:23:12.590Z,36.00
2022-08-12T05:28:03.597Z,36.00
2022-08-12T05:33:02.882Z,40.00
2022-08-12T05:38:03.189Z,40.00
2022-08-12T05:43:02.482Z,40.00
2022-08-12T05:48:00.811Z,44.00
2022-08-12T05:53:01.120Z,44.00
2022-08-12T05:57:59.365Z,48.00
2022-08-12T06:02:59.768Z,48.00
2022-08-12T06:08:00.756Z,48.00
2022-08-12T06:12:57.015Z,52.00
2022-08-12T06:17:56.121Z,52.00
2022-08-12T06:22:55.424Z,52.00
2022-08-12T06:28:06.987Z,52.00
2022-08-12T06:33:04.208Z,52.00
2022-08-12T06:37:56.801Z,56.00
2022-08-12T06:42:53.321Z,56.00
2022-08-12T06:47:52.671Z,56.00
2022-08-12T06:52:51.963Z,60.00
2022-08-12T06:58:06.399Z,60.00
2022-08-12T07:02:50.485Z,64.00
2022-08-12T07:07:48.776Z,60.00
2022-08-12T07:12:49.053Z,64.00
2022-08-12T07:17:48.337Z,64.00
2022-08-12T07:22:47.613Z,64.00
2022-08-12T07:27:45.902Z,64.00
2022-08-12T07:32:46.218Z,64.00
2022-08-12T07:37:44.532Z,68.00
2022-08-12T07:42:43.684Z,68.00
2022-08-12T07:47:42.995Z,64.00
2022-08-12T07:52:42.648Z,68.00
2022-08-12T07:57:40.613Z,68.00
2022-08-12T08:02:41.171Z,68.00
2022-08-12T08:07:40.249Z,68.00
2022-08-12T08:12:39.663Z,68.00
2022-08-12T08:17:39.718Z,68.00
2022-08-12T08:22:41.416Z,68.00
2022-08-12T08:27:38.125Z,72.00
2022-08-12T08:32:36.283Z,68.00
2022-08-12T08:37:37.199Z,68.00
2022-08-12T08:42:35.617Z,68.00
2022-08-12T08:47:33.747Z,68.00
2022-08-12T08:52:39.374Z,72.00
2022-08-12T08:57:43.115Z,72.00
2022-08-12T09:02:31.313Z,72.00
2022-08-12T09:07:51.150Z,72.00
2022-08-12T09:12:30.616Z,72.00
2022-08-12T09:17:42.984Z,72.00
2022-08-12T09:22:35.147Z,72.00
2022-08-12T09:27:57.798Z,72.00
2022-08-12T09:32:57.038Z,72.00
2022-08-12T09:37:25.567Z,72.00
2022-08-12T09:42:52.978Z,72.00
2022-08-12T09:47:28.925Z,72.00
2022-08-12T09:52:32.045Z,72.00
2022-08-12T09:58:46.457Z,72.00
2022-08-12T10:02:48.577Z,72.00
2022-08-12T10:07:24.707Z,68.00
2022-08-12T10:12:31.537Z,68.00
2022-08-12T10:17:21.163Z,68.00
2022-08-12T10:22:39.693Z,68.00
2022-08-12T10:27:18.776Z,68.00
2022-08-12T10:32:21.019Z,68.00
2022-08-12T10:37:22.842Z,68.00
2022-08-12T10:42:15.209Z,68.00
2022-08-12T10:47:26.228Z,68.00
2022-08-12T10:52:34.470Z,68.00
2022-08-12T10:57:18.029Z,68.00
2022-08-12T11:04:20.315Z,68.00
2022-08-12T11:08:33.821Z,68.00
2022-08-12T11:12:55.743Z,68.00
2022-08-12T11:17:43.374Z,68.00
2022-08-12T11:22:08.924Z,68.00
2022-08-12T11:27:11.714Z,68.00
2022-08-12T11:32:07.474Z,68.00
2022-08-12T11:37:06.684Z,68.00
2022-08-12T11:42:07.833Z,68.00
2022-08-12T11:47:09.540Z,68.00
2022-08-12T11:52:17.218Z,72.00
2022-08-12T11:58:08.121Z,68.00
2022-08-12T12:02:05.718Z,68.00
2022-08-12T12:07:07.567Z,68.00
2022-08-12T12:12:02.241Z,68.00
2022-08-12T12:16:59.393Z,68.00
2022-08-12T12:22:01.569Z,72.00
2022-08-12T12:27:01.576Z,72.00
2022-08-12T12:32:09.393Z,72.00
2022-08-12T12:36:57.292Z,72.00
2022-08-12T12:42:41.753Z,72.00
2022-08-12T12:46:55.692Z,72.00
2022-08-12T12:52:19.422Z,72.00
2022-08-12T12:56:54.272Z,72.00
2022-08-12T13:01:54.619Z,72.00
2022-08-12T13:06:53.700Z,72.00
2022-08-12T13:11:53.262Z,72.00
2022-08-12T13:16:51.176Z,76.00
2022-08-12T13:21:51.488Z,72.00
2022-08-12T13:26:49.789Z,72.00
2022-08-12T13:32:30.804Z,72.00
2022-08-12T13:36:47.528Z,76.00
2022-08-12T13:41:49.607Z,76.00
2022-08-12T13:46:58.388Z,80.00
2022-08-12T13:51:47.900Z,80.00
2022-08-12T13:56:49.906Z,76.00
2022-08-12T14:01:45.361Z,80.00
2022-08-12T14:06:44.842Z,80.00
2022-08-12T14:11:47.937Z,104.00
2022-08-12T14:16:48.470Z,136.00
2022-08-12T14:22:01.263Z,140.00
2022-08-12T14:26:40.373Z,112.00
2022-08-12T14:31:43.031Z,128.00
2022-08-12T14:36:40.768Z,168.00
2022-08-12T14:41:48.667Z,200.00
2022-08-12T14:46:38.293Z,220.00
2022-08-12T14:53:15.316Z,240.00
2022-08-12T14:57:19.464Z,232.00
2022-08-12T15:01:33.921Z,232.00
2022-08-12T15:06:44.206Z,176.00
2022-08-12T15:11:54.776Z,196.00
2022-08-12T15:16:33.585Z,148.00
2022-08-12T15:22:35.391Z,172.00
2022-08-12T15:26:36.658Z,212.00
2022-08-12T15:31:59.555Z,252.00
2022-08-12T15:36:55.188Z,256.00
2022-08-12T15:41:28.554Z,260.00
2022-08-12T15:46:28.763Z,268.00
2022-08-12T15:51:27.074Z,280.00
2022-08-12T15:56:29.387Z,292.00
2022-08-12T16:01:26.628Z,32.00
2022-08-12T16:06:36.404Z,28.00
2022-08-12T16:11:24.064Z,32.00
2022-08-12T16:16:24.887Z,32.00
2022-08-12T16:21:52.593Z,36.00
2022-08-12T16:26:27.487Z,36.00
2022-08-12T16:31:23.276Z,36.00
2022-08-12T16:36:20.311Z,36.00
2022-08-12T16:41:19.582Z,32.00
2022-08-12T16:46:31.185Z,40.00
2022-08-12T16:51:18.007Z,192.00
2022-08-12T16:56:18.239Z,200.00
2022-08-12T17:01:16.677Z,112.00
2022-08-12T17:06:19.594Z,60.00
2022-08-12T17:11:18.173Z,36.00
2022-08-12T17:16:18.033Z,32.00
2022-08-12T17:21:12.358Z,32.00
2022-08-12T17:26:12.546Z,32.00
2022-08-12T17:31:11.691Z,32.00
2022-08-12T17:36:10.952Z,28.00
2022-08-12T17:41:23.282Z,32.00
2022-08-12T17:46:13.191Z,36.00
2022-08-12T17:51:09.495Z,44.00
2022-08-12T17:56:07.767Z,40.00
2022-08-12T18:01:11.077Z,32.00
2022-08-12T18:06:13.958Z,24.00
2022-08-12T18:11:11.759Z,0.00
2022-08-12T18:16:06.368Z,4.00
2022-08-12T18:21:03.797Z,4.00
2022-08-12T18:26:14.791Z,0.00
2022-08-12T18:31:03.388Z,0.00
2022-08-12T18:36:02.430Z,0.00
2022-08-12T18:41:00.565Z,0.00
2022-08-12T18:45:59.787Z,0.00
2022-08-12T18:50:58.952Z,0.00
2022-08-12T18:55:59.549Z,0.00
2022-08-12T19:00:57.379Z,0.00
2022-08-12T19:05:56.523Z,0.00
2022-08-12T19:10:55.728Z,0.00
2022-08-12T19:15:57.547Z,0.00
2022-08-12T19:20:55.264Z,0.00
2022-08-12T19:26:01.517Z,0.00
2022-08-12T19:30:53.874Z,4.00
2022-08-12T19:36:07.503Z,4.00
2022-08-12T19:40:51.320Z,0.00
2022-08-12T19:45:50.589Z,0.00
2022-08-12T19:50:52.210Z,0.00
2022-08-12T19:55:51.675Z,0.00
2022-08-12T20:00:52.854Z,0.00
2022-08-12T20:06:05.566Z,0.00
2022-08-12T20:10:47.547Z,0.00
2022-08-12T20:15:46.661Z,0.00
2022-08-12T20:20:44.994Z,0.00
2022-08-12T20:25:53.506Z,0.00
2022-08-12T20:30:53.618Z,0.00
2022-08-12T20:36:13.662Z,0.00
2022-08-12T20:40:48.014Z,0.00
2022-08-12T20:45:50.820Z,4.00
2022-08-12T20:50:40.374Z,4.00
2022-08-12T20:55:42.334Z,4.00
2022-08-12T21:00:39.784Z,4.00
2022-08-12T21:06:11.900Z,4.00
2022-08-12T21:10:38.405Z,4.00
2022-08-12T21:15:54.870Z,4.00
2022-08-12T21:20:35.571Z,4.00
2022-08-12T21:25:45.203Z,4.00
2022-08-12T21:30:34.188Z,0.00
2022-08-12T21:35:35.863Z,0.00
2022-08-12T21:40:37.024Z,0.00
2022-08-12T21:45:46.868Z,0.00
2022-08-12T21:50:30.702Z,0.00
2022-08-12T21:55:30.992Z,0.00
2022-08-12T22:00:32.473Z,0.00
2022-08-12T22:05:30.269Z,0.00
2022-08-12T22:10:28.549Z,0.00
2022-08-12T22:15:37.835Z,0.00
2022-08-12T22:20:29.599Z,0.00
2022-08-12T22:25:26.745Z,0.00
2022-08-12T22:30:25.332Z,0.00
2022-08-12T22:35:29.218Z,0.00
2022-08-12T22:40:22.709Z,0.00
2022-08-12T22:45:23.304Z,0.00
2022-08-12T22:50:27.149Z,0.00
2022-08-12T22:55:58.636Z,0.00
2022-08-12T23:00:24.594Z,0.00
2022-08-12T23:05:20.877Z,0.00
2022-08-12T23:10:18.107Z,0.00
2022-08-12T23:15:17.445Z,0.00
2022-08-12T23:20:17.554Z,0.00
2022-08-12T23:25:19.157Z,0.00
2022-08-12T23:30:18.773Z,0.00
2022-08-12T23:35:18.907Z,0.00
2022-08-12T23:40:18.176Z,0.00
2022-08-12T23:45:20.424Z,0.00
2022-08-12T23:50:13.115Z,0.00
2022-08-12T23:55:23.660Z,0.00
